sensor_id;sensor_type;location;lat;lon;timestamp;pressure;altitude;pressure_sealevel;temperature;humidity
12349;BME280;5974;42.710;27.258;2023-03-21T00:02:19;100276.41;;;3.09;100.00
12349;BME280;5974;42.710;27.258;2023-03-21T00:04:50;100275.66;;;2.98;100.00
12349;BME280;5974;42.710;27.258;2023-03-21T00:07:16;100272.78;;;3.34;100.00
12349;BME280;5974;42.710;27.258;2023-03-21T00:09:43;100270.94;;;3.45;100.00
12349;BME280;5974;42.710;27.258;2023-03-21T00:12:10;100268.81;;;2.91;100.00
12349;BME280;5974;42.710;27.258;2023-03-21T00:14:38;100269.25;;;2.16;100.00
12349;BME280;5974;42.710;27.258;2023-03-21T00:17:05;100269.31;;;2.00;100.00
12349;BME280;5974;42.710;27.258;2023-03-21T00:19:32;100280.44;;;2.06;100.00
12349;BME280;5974;42.710;27.258;2023-03-21T00:22:04;100285.44;;;2.44;100.00
12349;BME280;5974;42.710;27.258;2023-03-21T00:24:31;100274.97;;;2.71;100.00
12349;BME280;5974;42.710;27.258;2023-03-21T00:26:58;100276.47;;;3.04;100.00
12349;BME280;5974;42.710;27.258;2023-03-21T00:29:25;100269.59;;;2.99;100.00
12349;BME280;5974;42.710;27.258;2023-03-21T00:31:52;100275.59;;;3.07;100.00
12349;BME280;5974;42.710;27.258;2023-03-21T00:34:19;100267.84;;;3.05;100.00
12349;BME280;5974;42.710;27.258;2023-03-21T00:36:45;100264.38;;;3.08;100.00
12349;BME280;5974;42.710;27.258;2023-03-21T00:39:14;100260.91;;;3.12;100.00
12349;BME280;5974;42.710;27.258;2023-03-21T00:41:40;100267.78;;;3.13;100.00
12349;BME280;5974;42.710;27.258;2023-03-21T00:44:07;100261.88;;;2.96;100.00
12349;BME280;5974;42.710;27.258;2023-03-21T00:46:35;100270.34;;;3.14;100.00
12349;BME280;5974;42.710;27.258;2023-03-21T00:49:02;100271.13;;;3.25;100.00
12349;BME280;5974;42.710;27.258;2023-03-21T00:51:29;100276.19;;;3.38;100.00
12349;BME280;5974;42.710;27.258;2023-03-21T00:53:57;100259.78;;;3.40;100.00
12349;BME280;5974;42.710;27.258;2023-03-21T00:56:25;100272.59;;;3.52;100.00
12349;BME280;5974;42.710;27.258;2023-03-21T00:58:52;100270.88;;;3.51;100.00
12349;BME280;5974;42.710;27.258;2023-03-21T01:01:19;100275.72;;;3.81;100.00
12349;BME280;5974;42.710;27.258;2023-03-21T01:03:46;100271.38;;;3.85;100.00
12349;BME280;5974;42.710;27.258;2023-03-21T01:06:16;100256.22;;;3.52;100.00
12349;BME280;5974;42.710;27.258;2023-03-21T01:08:45;100265.56;;;3.66;100.00
12349;BME280;5974;42.710;27.258;2023-03-21T01:11:14;100254.91;;;3.95;100.00
12349;BME280;5974;42.710;27.258;2023-03-21T01:13:43;100243.00;;;3.79;100.00
12349;BME280;5974;42.710;27.258;2023-03-21T01:16:10;100248.06;;;3.90;100.00
12349;BME280;5974;42.710;27.258;2023-03-21T01:18:38;100245.66;;;2.79;100.00
12349;BME280;5974;42.710;27.258;2023-03-21T01:21:07;100247.69;;;2.28;100.00
12349;BME280;5974;42.710;27.258;2023-03-21T01:23:35;100241.81;;;1.97;100.00
12349;BME280;5974;42.710;27.258;2023-03-21T01:26:02;100255.47;;;2.19;100.00
12349;BME280;5974;42.710;27.258;2023-03-21T01:28:30;100215.59;;;2.73;100.00
12349;BME280;5974;42.710;27.258;2023-03-21T01:31:00;100247.16;;;3.10;100.00
12349;BME280;5974;42.710;27.258;2023-03-21T01:33:27;100239.44;;;3.02;100.00
12349;BME280;5974;42.710;27.258;2023-03-21T01:35:54;100236.94;;;2.95;100.00
12349;BME280;5974;42.710;27.258;2023-03-21T01:38:21;100229.38;;;2.73;100.00
12349;BME280;5974;42.710;27.258;2023-03-21T01:40:49;100219.09;;;2.63;100.00
12349;BME280;5974;42.710;27.258;2023-03-21T01:43:23;100222.47;;;2.72;100.00
12349;BME280;5974;42.710;27.258;2023-03-21T01:46:19;100211.97;;;2.98;100.00
12349;BME280;5974;42.710;27.258;2023-03-21T01:48:49;100208.72;;;2.72;100.00
12349;BME280;5974;42.710;27.258;2023-03-21T01:51:20;100206.41;;;2.31;100.00
12349;BME280;5974;42.710;27.258;2023-03-21T01:53:47;100208.00;;;2.53;100.00
12349;BME280;5974;42.710;27.258;2023-03-21T01:56:18;100177.13;;;2.43;100.00
12349;BME280;5974;42.710;27.258;2023-03-21T01:58:49;100191.66;;;2.54;100.00
12349;BME280;5974;42.710;27.258;2023-03-21T02:01:21;100209.56;;;2.76;100.00
12349;BME280;5974;42.710;27.258;2023-03-21T02:03:49;100211.16;;;2.90;100.00
12349;BME280;5974;42.710;27.258;2023-03-21T02:06:24;100205.97;;;2.95;100.00
12349;BME280;5974;42.710;27.258;2023-03-21T02:08:59;100185.38;;;2.89;100.00
12349;BME280;5974;42.710;27.258;2023-03-21T02:11:29;100199.69;;;3.20;100.00
12349;BME280;5974;42.710;27.258;2023-03-21T02:13:57;100203.03;;;3.29;100.00
12349;BME280;5974;42.710;27.258;2023-03-21T02:16:43;100207.16;;;3.49;100.00
12349;BME280;5974;42.710;27.258;2023-03-21T02:19:35;100201.84;;;3.62;100.00
12349;BME280;5974;42.710;27.258;2023-03-21T02:22:25;100212.72;;;3.89;100.00
12349;BME280;5974;42.710;27.258;2023-03-21T02:25:22;100216.09;;;3.16;100.00
12349;BME280;5974;42.710;27.258;2023-03-21T02:27:58;100216.72;;;3.39;100.00
12349;BME280;5974;42.710;27.258;2023-03-21T02:30:44;100215.28;;;3.08;100.00
12349;BME280;5974;42.710;27.258;2023-03-21T02:33:48;100215.31;;;3.89;100.00
12349;BME280;5974;42.710;27.258;2023-03-21T02:39:38;100210.63;;;4.21;100.00
12349;BME280;5974;42.710;27.258;2023-03-21T02:42:08;100209.59;;;4.31;100.00
12349;BME280;5974;42.710;27.258;2023-03-21T02:44:41;100206.81;;;4.43;100.00
12349;BME280;5974;42.710;27.258;2023-03-21T02:47:12;100207.41;;;4.62;100.00
12349;BME280;5974;42.710;27.258;2023-03-21T02:49:43;100202.94;;;4.71;100.00
12349;BME280;5974;42.710;27.258;2023-03-21T02:52:16;100206.25;;;4.81;100.00
12349;BME280;5974;42.710;27.258;2023-03-21T02:54:46;100208.84;;;4.82;100.00
12349;BME280;5974;42.710;27.258;2023-03-21T02:57:17;100211.34;;;4.88;100.00
12349;BME280;5974;42.710;27.258;2023-03-21T02:59:47;100205.13;;;4.97;100.00
12349;BME280;5974;42.710;27.258;2023-03-21T03:02:16;100205.00;;;5.05;100.00
12349;BME280;5974;42.710;27.258;2023-03-21T03:04:46;100181.06;;;4.92;100.00
12349;BME280;5974;42.710;27.258;2023-03-21T03:07:32;100207.53;;;5.08;100.00
12349;BME280;5974;42.710;27.258;2023-03-21T03:10:13;100206.16;;;4.87;100.00
12349;BME280;5974;42.710;27.258;2023-03-21T03:12:50;100207.13;;;4.81;100.00
12349;BME280;5974;42.710;27.258;2023-03-21T03:15:24;100201.69;;;4.97;100.00
12349;BME280;5974;42.710;27.258;2023-03-21T03:18:01;100203.00;;;5.20;100.00
12349;BME280;5974;42.710;27.258;2023-03-21T03:20:42;100202.22;;;5.17;100.00
12349;BME280;5974;42.710;27.258;2023-03-21T03:23:19;100197.59;;;5.34;100.00
12349;BME280;5974;42.710;27.258;2023-03-21T03:25:56;100194.19;;;5.32;100.00
12349;BME280;5974;42.710;27.258;2023-03-21T03:28:28;100191.31;;;5.45;100.00
12349;BME280;5974;42.710;27.258;2023-03-21T03:30:58;100193.63;;;5.61;100.00
12349;BME280;5974;42.710;27.258;2023-03-21T03:33:26;100190.28;;;5.54;100.00
12349;BME280;5974;42.710;27.258;2023-03-21T03:35:55;100178.91;;;5.15;100.00
12349;BME280;5974;42.710;27.258;2023-03-21T03:38:24;100189.16;;;5.23;100.00
12349;BME280;5974;42.710;27.258;2023-03-21T03:40:57;100192.22;;;5.43;100.00
12349;BME280;5974;42.710;27.258;2023-03-21T03:43:30;100192.19;;;5.44;100.00
12349;BME280;5974;42.710;27.258;2023-03-21T03:46:02;100191.25;;;5.48;100.00
12349;BME280;5974;42.710;27.258;2023-03-21T03:48:39;100190.28;;;5.54;100.00
12349;BME280;5974;42.710;27.258;2023-03-21T03:51:15;100190.03;;;5.68;100.00
12349;BME280;5974;42.710;27.258;2023-03-21T03:53:44;100186.56;;;5.67;100.00
12349;BME280;5974;42.710;27.258;2023-03-21T03:56:14;100185.50;;;5.77;100.00
12349;BME280;5974;42.710;27.258;2023-03-21T03:58:42;100183.50;;;5.93;100.00
12349;BME280;5974;42.710;27.258;2023-03-21T04:01:09;100178.13;;;6.00;100.00
12349;BME280;5974;42.710;27.258;2023-03-21T04:03:37;100183.91;;;6.15;100.00
12349;BME280;5974;42.710;27.258;2023-03-21T04:06:06;100181.50;;;6.06;100.00
12349;BME280;5974;42.710;27.258;2023-03-21T04:08:32;100185.66;;;6.13;100.00
12349;BME280;5974;42.710;27.258;2023-03-21T04:11:02;100186.31;;;6.24;100.00
12349;BME280;5974;42.710;27.258;2023-03-21T04:13:30;100183.91;;;6.15;100.00
12349;BME280;5974;42.710;27.258;2023-03-21T04:15:57;100189.91;;;6.17;100.00
12349;BME280;5974;42.710;27.258;2023-03-21T04:18:24;100174.53;;;6.08;100.00
12349;BME280;5974;42.710;27.258;2023-03-21T04:20:52;100199.34;;;6.21;100.00
12349;BME280;5974;42.710;27.258;2023-03-21T04:23:19;100206.78;;;6.36;100.00
12349;BME280;5974;42.710;27.258;2023-03-21T04:25:46;100169.28;;;6.09;100.00
12349;BME280;5974;42.710;27.258;2023-03-21T04:28:12;100199.00;;;6.36;100.00
12349;BME280;5974;42.710;27.258;2023-03-21T04:30:41;100194.66;;;6.36;100.00
12349;BME280;5974;42.710;27.258;2023-03-21T04:33:08;100201.13;;;6.55;100.00
12349;BME280;5974;42.710;27.258;2023-03-21T04:35:34;100199.22;;;6.64;100.00
12349;BME280;5974;42.710;27.258;2023-03-21T04:38:02;100196.72;;;6.61;100.00
12349;BME280;5974;42.710;27.258;2023-03-21T04:40:29;100197.72;;;6.90;100.00
12349;BME280;5974;42.710;27.258;2023-03-21T04:42:56;100191.34;;;7.03;100.00
12349;BME280;5974;42.710;27.258;2023-03-21T04:45:25;100195.78;;;7.32;100.00
12349;BME280;5974;42.710;27.258;2023-03-21T04:47:54;100196.13;;;7.51;100.00
12349;BME280;5974;42.710;27.258;2023-03-21T04:50:21;100194.97;;;7.62;100.00
12349;BME280;5974;42.710;27.258;2023-03-21T04:52:48;100200.38;;;7.55;100.00
12349;BME280;5974;42.710;27.258;2023-03-21T04:55:15;100213.00;;;7.36;100.00
12349;BME280;5974;42.710;27.258;2023-03-21T04:57:46;100199.25;;;7.65;100.00
12349;BME280;5974;42.710;27.258;2023-03-21T05:00:14;100196.97;;;7.53;100.00
12349;BME280;5974;42.710;27.258;2023-03-21T05:02:41;100195.53;;;7.74;100.00
12349;BME280;5974;42.710;27.258;2023-03-21T05:05:09;100190.94;;;7.82;100.00
12349;BME280;5974;42.710;27.258;2023-03-21T05:07:37;100191.94;;;7.78;100.00
12349;BME280;5974;42.710;27.258;2023-03-21T05:10:05;100187.44;;;7.84;100.00
12349;BME280;5974;42.710;27.258;2023-03-21T05:12:33;100194.66;;;7.73;100.00
12349;BME280;5974;42.710;27.258;2023-03-21T05:15:00;100205.31;;;7.64;100.00
12349;BME280;5974;42.710;27.258;2023-03-21T05:17:27;100201.34;;;7.82;100.00
12349;BME280;5974;42.710;27.258;2023-03-21T05:19:54;100205.03;;;8.05;100.00
12349;BME280;5974;42.710;27.258;2023-03-21T05:22:23;100201.78;;;8.27;100.00
12349;BME280;5974;42.710;27.258;2023-03-21T05:24:52;100196.47;;;8.31;100.00
12349;BME280;5974;42.710;27.258;2023-03-21T05:27:20;100201.38;;;8.42;100.00
12349;BME280;5974;42.710;27.258;2023-03-21T05:30:01;100195.53;;;8.61;100.00
12349;BME280;5974;42.710;27.258;2023-03-21T05:32:28;100192.50;;;8.75;100.00
12349;BME280;5974;42.710;27.258;2023-03-21T05:34:55;100198.72;;;8.97;100.00
12349;BME280;5974;42.710;27.258;2023-03-21T05:37:23;100195.41;;;9.18;100.00
12349;BME280;5974;42.710;27.258;2023-03-21T05:39:50;100184.44;;;9.34;100.00
12349;BME280;5974;42.710;27.258;2023-03-21T05:42:17;100183.13;;;9.47;100.00
12349;BME280;5974;42.710;27.258;2023-03-21T05:44:44;100174.47;;;9.45;100.00
12349;BME280;5974;42.710;27.258;2023-03-21T05:47:12;100178.44;;;9.05;100.00
12349;BME280;5974;42.710;27.258;2023-03-21T05:49:39;100181.78;;;9.10;100.00
12349;BME280;5974;42.710;27.258;2023-03-21T05:52:06;100193.66;;;9.44;100.00
12349;BME280;5974;42.710;27.258;2023-03-21T05:54:34;100189.25;;;9.46;100.00
12349;BME280;5974;42.710;27.258;2023-03-21T05:57:01;100216.16;;;9.21;100.00
12349;BME280;5974;42.710;27.258;2023-03-21T05:59:28;100205.22;;;9.37;100.00
12349;BME280;5974;42.710;27.258;2023-03-21T06:01:55;100201.06;;;9.56;100.00
12349;BME280;5974;42.710;27.258;2023-03-21T06:04:22;100202.72;;;9.34;100.00
12349;BME280;5974;42.710;27.258;2023-03-21T06:06:48;100198.31;;;9.84;100.00
12349;BME280;5974;42.710;27.258;2023-03-21T06:09:18;100182.22;;;9.96;100.00
12349;BME280;5974;42.710;27.258;2023-03-21T06:11:48;100181.88;;;8.81;100.00
12349;BME280;5974;42.710;27.258;2023-03-21T06:14:15;100185.72;;;8.69;100.00
12349;BME280;5974;42.710;27.258;2023-03-21T06:16:42;100200.09;;;8.55;100.00
12349;BME280;5974;42.710;27.258;2023-03-21T06:19:09;100177.00;;;8.97;100.00
12349;BME280;5974;42.710;27.258;2023-03-21T06:21:36;100187.56;;;8.92;100.00
12349;BME280;5974;42.710;27.258;2023-03-21T06:24:03;100181.69;;;9.13;100.00
12349;BME280;5974;42.710;27.258;2023-03-21T06:26:30;100201.38;;;9.22;100.00
12349;BME280;5974;42.710;27.258;2023-03-21T06:28:58;100186.94;;;9.37;100.00
12349;BME280;5974;42.710;27.258;2023-03-21T06:31:25;100194.44;;;9.94;100.00
12349;BME280;5974;42.710;27.258;2023-03-21T06:33:52;100186.47;;;10.21;100.00
12349;BME280;5974;42.710;27.258;2023-03-21T06:36:19;100177.22;;;10.79;100.00
12349;BME280;5974;42.710;27.258;2023-03-21T06:38:46;100170.47;;;10.74;100.00
12349;BME280;5974;42.710;27.258;2023-03-21T06:41:13;100174.81;;;10.95;100.00
12349;BME280;5974;42.710;27.258;2023-03-21T06:43:39;100167.22;;;11.31;100.00
12349;BME280;5974;42.710;27.258;2023-03-21T06:46:08;100153.19;;;11.52;100.00
12349;BME280;5974;42.710;27.258;2023-03-21T06:48:35;100141.50;;;11.79;100.00
12349;BME280;5974;42.710;27.258;2023-03-21T06:51:04;100142.09;;;12.95;100.00
12349;BME280;5974;42.710;27.258;2023-03-21T06:53:31;100137.16;;;12.53;100.00
12349;BME280;5974;42.710;27.258;2023-03-21T06:55:58;100127.41;;;13.42;100.00
12349;BME280;5974;42.710;27.258;2023-03-21T06:58:25;100123.47;;;12.99;100.00
12349;BME280;5974;42.710;27.258;2023-03-21T07:00:52;100137.78;;;11.44;100.00
12349;BME280;5974;42.710;27.258;2023-03-21T07:03:20;100149.59;;;11.93;100.00
12349;BME280;5974;42.710;27.258;2023-03-21T07:05:47;100137.44;;;12.11;100.00
12349;BME280;5974;42.710;27.258;2023-03-21T07:08:14;100157.69;;;12.26;100.00
12349;BME280;5974;42.710;27.258;2023-03-21T07:10:43;100161.00;;;11.92;100.00
12349;BME280;5974;42.710;27.258;2023-03-21T07:13:11;100168.69;;;11.57;100.00
12349;BME280;5974;42.710;27.258;2023-03-21T07:15:38;100163.06;;;12.23;100.00
12349;BME280;5974;42.710;27.258;2023-03-21T07:18:06;100155.00;;;12.64;100.00
12349;BME280;5974;42.710;27.258;2023-03-21T07:20:35;100158.28;;;11.75;100.00
12349;BME280;5974;42.710;27.258;2023-03-21T07:23:03;100152.59;;;12.23;100.00
12349;BME280;5974;42.710;27.258;2023-03-21T07:25:30;100158.59;;;11.68;100.00
12349;BME280;5974;42.710;27.258;2023-03-21T07:27:57;100151.63;;;12.24;100.00
12349;BME280;5974;42.710;27.258;2023-03-21T07:30:23;100156.53;;;12.68;100.00
12349;BME280;5974;42.710;27.258;2023-03-21T07:32:51;100145.59;;;13.13;100.00
12349;BME280;5974;42.710;27.258;2023-03-21T07:35:19;100141.19;;;13.96;100.00
12349;BME280;5974;42.710;27.258;2023-03-21T07:37:47;100102.94;;;15.99;100.00
12349;BME280;5974;42.710;27.258;2023-03-21T07:40:14;100130.47;;;16.36;100.00
12349;BME280;5974;42.710;27.258;2023-03-21T07:42:41;100128.78;;;17.53;100.00
12349;BME280;5974;42.710;27.258;2023-03-21T07:45:10;100127.81;;;15.81;100.00
12349;BME280;5974;42.710;27.258;2023-03-21T07:47:39;100126.75;;;14.51;100.00
12349;BME280;5974;42.710;27.258;2023-03-21T07:50:07;100121.28;;;14.07;100.00
12349;BME280;5974;42.710;27.258;2023-03-21T07:52:34;100111.44;;;13.30;100.00
12349;BME280;5974;42.710;27.258;2023-03-21T07:55:02;100111.19;;;13.51;100.00
12349;BME280;5974;42.710;27.258;2023-03-21T07:57:29;100108.53;;;13.19;100.00
12349;BME280;5974;42.710;27.258;2023-03-21T07:59:57;100105.31;;;13.95;100.00
12349;BME280;5974;42.710;27.258;2023-03-21T08:02:24;100111.47;;;13.63;100.00
12349;BME280;5974;42.710;27.258;2023-03-21T08:04:51;100111.09;;;14.94;100.00
12349;BME280;5974;42.710;27.258;2023-03-21T08:07:18;100113.13;;;15.18;100.00
12349;BME280;5974;42.710;27.258;2023-03-21T08:09:45;100102.13;;;15.56;100.00
12349;BME280;5974;42.710;27.258;2023-03-21T08:12:13;100108.34;;;14.81;100.00
12349;BME280;5974;42.710;27.258;2023-03-21T08:14:41;100118.81;;;14.67;100.00
12349;BME280;5974;42.710;27.258;2023-03-21T08:17:08;100118.00;;;14.51;100.00
12349;BME280;5974;42.710;27.258;2023-03-21T08:19:36;100117.47;;;13.65;100.00
12349;BME280;5974;42.710;27.258;2023-03-21T08:22:03;100120.94;;;14.13;100.00
12349;BME280;5974;42.710;27.258;2023-03-21T08:24:30;100116.47;;;14.47;100.00
12349;BME280;5974;42.710;27.258;2023-03-21T08:26:58;100108.31;;;15.11;100.00
12349;BME280;5974;42.710;27.258;2023-03-21T08:29:27;100096.66;;;14.55;100.00
12349;BME280;5974;42.710;27.258;2023-03-21T08:31:54;100073.19;;;14.82;100.00
12349;BME280;5974;42.710;27.258;2023-03-21T08:34:21;100093.47;;;15.24;100.00
12349;BME280;5974;42.710;27.258;2023-03-21T08:36:48;100100.09;;;15.31;100.00
12349;BME280;5974;42.710;27.258;2023-03-21T08:39:15;100077.03;;;16.32;100.00
12349;BME280;5974;42.710;27.258;2023-03-21T08:41:42;100105.88;;;16.62;100.00
12349;BME280;5974;42.710;27.258;2023-03-21T08:44:09;100109.34;;;16.36;100.00
12349;BME280;5974;42.710;27.258;2023-03-21T08:46:38;100105.72;;;16.51;100.00
12349;BME280;5974;42.710;27.258;2023-03-21T08:49:05;100118.38;;;15.91;100.00
12349;BME280;5974;42.710;27.258;2023-03-21T08:51:31;100113.13;;;15.62;100.00
12349;BME280;5974;42.710;27.258;2023-03-21T08:53:59;100122.34;;;15.55;100.00
12349;BME280;5974;42.710;27.258;2023-03-21T08:56:26;100112.47;;;15.15;100.00
12349;BME280;5974;42.710;27.258;2023-03-21T08:58:52;100108.03;;;16.28;100.00
12349;BME280;5974;42.710;27.258;2023-03-21T09:01:19;100110.19;;;14.95;100.00
12349;BME280;5974;42.710;27.258;2023-03-21T09:03:48;100117.75;;;15.87;100.00
12349;BME280;5974;42.710;27.258;2023-03-21T09:06:14;100120.38;;;15.29;100.00
12349;BME280;5974;42.710;27.258;2023-03-21T09:08:41;100116.09;;;15.42;100.00
12349;BME280;5974;42.710;27.258;2023-03-21T09:11:10;100118.44;;;16.17;100.00
12349;BME280;5974;42.710;27.258;2023-03-21T09:13:37;100112.94;;;15.80;100.00
12349;BME280;5974;42.710;27.258;2023-03-21T09:16:04;100109.75;;;16.30;100.00
12349;BME280;5974;42.710;27.258;2023-03-21T09:18:31;100115.03;;;16.15;100.00
12349;BME280;5974;42.710;27.258;2023-03-21T09:21:14;100076.19;;;16.98;100.00
12349;BME280;5974;42.710;27.258;2023-03-21T09:23:43;100106.53;;;15.55;100.00
12349;BME280;5974;42.710;27.258;2023-03-21T09:26:10;100107.28;;;15.86;100.00
12349;BME280;5974;42.710;27.258;2023-03-21T09:28:38;100104.91;;;15.95;100.00
12349;BME280;5974;42.710;27.258;2023-03-21T09:31:06;100108.53;;;15.36;100.00
12349;BME280;5974;42.710;27.258;2023-03-21T09:33:36;100104.03;;;16.09;100.00
12349;BME280;5974;42.710;27.258;2023-03-21T09:36:05;100106.34;;;15.00;100.00
12349;BME280;5974;42.710;27.258;2023-03-21T09:38:37;100104.38;;;15.04;100.00
12349;BME280;5974;42.710;27.258;2023-03-21T09:41:15;100100.88;;;15.76;100.00
12349;BME280;5974;42.710;27.258;2023-03-21T09:43:56;100089.41;;;14.75;100.00
12349;BME280;5974;42.710;27.258;2023-03-21T09:46:33;100087.72;;;15.17;100.00
12349;BME280;5974;42.710;27.258;2023-03-21T09:49:04;100092.91;;;15.19;100.00
12349;BME280;5974;42.710;27.258;2023-03-21T09:51:36;100085.03;;;14.89;100.00
12349;BME280;5974;42.710;27.258;2023-03-21T09:54:12;100095.69;;;15.02;100.00
12349;BME280;5974;42.710;27.258;2023-03-21T09:56:44;100061.22;;;15.91;100.00
12349;BME280;5974;42.710;27.258;2023-03-21T09:59:20;100099.31;;;15.15;100.00
12349;BME280;5974;42.710;27.258;2023-03-21T10:01:49;100102.66;;;15.03;100.00
12349;BME280;5974;42.710;27.258;2023-03-21T10:04:16;100097.44;;;14.87;100.00
12349;BME280;5974;42.710;27.258;2023-03-21T10:06:49;100090.59;;;14.85;100.00
12349;BME280;5974;42.710;27.258;2023-03-21T10:09:21;100095.25;;;15.24;100.00
12349;BME280;5974;42.710;27.258;2023-03-21T10:11:51;100071.47;;;15.96;100.00
12349;BME280;5974;42.710;27.258;2023-03-21T10:14:23;100073.34;;;16.61;100.00
12349;BME280;5974;42.710;27.258;2023-03-21T10:16:54;100064.56;;;17.00;100.00
12349;BME280;5974;42.710;27.258;2023-03-21T10:19:23;100070.63;;;17.40;100.00
12349;BME280;5974;42.710;27.258;2023-03-21T10:21:51;100068.41;;;15.61;100.00
12349;BME280;5974;42.710;27.258;2023-03-21T10:24:21;100065.03;;;16.00;100.00
12349;BME280;5974;42.710;27.258;2023-03-21T10:26:50;100068.47;;;15.88;100.00
12349;BME280;5974;42.710;27.258;2023-03-21T10:29:20;100063.75;;;15.36;100.00
12349;BME280;5974;42.710;27.258;2023-03-21T10:31:50;100058.25;;;17.28;100.00
12349;BME280;5974;42.710;27.258;2023-03-21T10:34:24;100051.78;;;17.45;100.00
12349;BME280;5974;42.710;27.258;2023-03-21T10:36:53;100047.19;;;18.45;100.00
12349;BME280;5974;42.710;27.258;2023-03-21T10:39:25;100043.84;;;17.32;100.00
12349;BME280;5974;42.710;27.258;2023-03-21T10:41:52;100021.22;;;18.26;98.23
12349;BME280;5974;42.710;27.258;2023-03-21T10:44:19;100043.84;;;18.06;99.86
12349;BME280;5974;42.710;27.258;2023-03-21T10:46:51;100044.94;;;18.27;99.37
12349;BME280;5974;42.710;27.258;2023-03-21T10:49:19;100035.50;;;18.94;93.24
12349;BME280;5974;42.710;27.258;2023-03-21T10:51:50;100029.88;;;18.75;92.71
12349;BME280;5974;42.710;27.258;2023-03-21T10:54:20;100039.50;;;17.69;96.82
12349;BME280;5974;42.710;27.258;2023-03-21T10:56:54;100039.63;;;17.04;100.00
12349;BME280;5974;42.710;27.258;2023-03-21T10:59:23;100034.00;;;18.32;93.71
12349;BME280;5974;42.710;27.258;2023-03-21T11:01:54;100032.59;;;18.15;96.49
12349;BME280;5974;42.710;27.258;2023-03-21T11:04:24;100020.00;;;18.77;90.11
12349;BME280;5974;42.710;27.258;2023-03-21T11:06:53;100021.34;;;19.40;93.13
12349;BME280;5974;42.710;27.258;2023-03-21T11:09:23;100016.34;;;18.56;90.61
12349;BME280;5974;42.710;27.258;2023-03-21T11:11:53;100008.28;;;19.04;92.02
12349;BME280;5974;42.710;27.258;2023-03-21T11:14:35;100010.75;;;19.40;89.97
12349;BME280;5974;42.710;27.258;2023-03-21T11:17:18;100005.16;;;19.32;90.07
12349;BME280;5974;42.710;27.258;2023-03-21T11:19:50;100003.09;;;19.35;86.66
12349;BME280;5974;42.710;27.258;2023-03-21T11:22:19;99998.28;;;19.74;86.19
12349;BME280;5974;42.710;27.258;2023-03-21T11:24:49;99992.34;;;18.81;87.32
12349;BME280;5974;42.710;27.258;2023-03-21T11:27:18;99993.34;;;18.09;86.94
12349;BME280;5974;42.710;27.258;2023-03-21T11:29:47;99985.38;;;19.03;88.30
12349;BME280;5974;42.710;27.258;2023-03-21T11:32:20;99978.31;;;18.57;86.95
12349;BME280;5974;42.710;27.258;2023-03-21T11:34:48;99985.81;;;18.74;86.19
12349;BME280;5974;42.710;27.258;2023-03-21T11:37:20;99970.28;;;18.81;86.77
12349;BME280;5974;42.710;27.258;2023-03-21T11:39:54;99971.09;;;18.59;86.18
12349;BME280;5974;42.710;27.258;2023-03-21T11:42:28;99970.66;;;18.99;86.40
12349;BME280;5974;42.710;27.258;2023-03-21T11:45:10;99968.25;;;18.95;83.37
12349;BME280;5974;42.710;27.258;2023-03-21T11:47:38;99961.03;;;19.20;86.45
12349;BME280;5974;42.710;27.258;2023-03-21T11:50:18;99956.59;;;19.09;86.31
12349;BME280;5974;42.710;27.258;2023-03-21T11:52:55;99961.06;;;19.09;83.55
12349;BME280;5974;42.710;27.258;2023-03-21T11:55:40;99959.00;;;19.23;81.26
12349;BME280;5974;42.710;27.258;2023-03-21T11:58:27;99954.44;;;19.59;82.13
12349;BME280;5974;42.710;27.258;2023-03-21T12:01:04;99950.66;;;19.39;80.50
12349;BME280;5974;42.710;27.258;2023-03-21T12:03:58;99956.66;;;18.63;80.54
12349;BME280;5974;42.710;27.258;2023-03-21T12:06:34;99954.03;;;19.63;78.35
12349;BME280;5974;42.710;27.258;2023-03-21T12:09:13;99944.66;;;18.81;78.15
12349;BME280;5974;42.710;27.258;2023-03-21T12:11:54;99955.03;;;19.18;78.70
12349;BME280;5974;42.710;27.258;2023-03-21T12:14:33;99955.81;;;18.74;81.77
12349;BME280;5974;42.710;27.258;2023-03-21T12:17:05;99956.84;;;19.39;82.94
12349;BME280;5974;42.710;27.258;2023-03-21T12:19:51;99947.78;;;20.07;79.23
12349;BME280;5974;42.710;27.258;2023-03-21T12:22:27;99955.00;;;18.73;82.05
12349;BME280;5974;42.710;27.258;2023-03-21T12:25:02;99957.56;;;19.53;82.60
12349;BME280;5974;42.710;27.258;2023-03-21T12:27:41;99954.56;;;17.24;89.21
12349;BME280;5974;42.710;27.258;2023-03-21T12:30:35;99957.78;;;16.52;98.52
12349;BME280;5974;42.710;27.258;2023-03-21T12:33:17;99948.06;;;16.40;100.00
12349;BME280;5974;42.710;27.258;2023-03-21T12:35:57;99947.06;;;16.80;100.00
12349;BME280;5974;42.710;27.258;2023-03-21T12:38:35;99935.47;;;16.58;100.00
12349;BME280;5974;42.710;27.258;2023-03-21T12:41:16;99937.47;;;16.54;100.00
12349;BME280;5974;42.710;27.258;2023-03-21T12:43:48;99937.06;;;16.34;100.00
12349;BME280;5974;42.710;27.258;2023-03-21T12:46:24;99919.94;;;16.14;100.00
12349;BME280;5974;42.710;27.258;2023-03-21T12:48:57;99934.88;;;16.53;100.00
12349;BME280;5974;42.710;27.258;2023-03-21T12:51:29;99930.38;;;16.93;100.00
12349;BME280;5974;42.710;27.258;2023-03-21T12:54:02;99925.47;;;15.97;100.00
12349;BME280;5974;42.710;27.258;2023-03-21T12:56:33;99926.19;;;16.25;100.00
12349;BME280;5974;42.710;27.258;2023-03-21T12:59:10;99914.63;;;16.01;100.00
12349;BME280;5974;42.710;27.258;2023-03-21T13:01:44;99926.97;;;16.53;100.00
12349;BME280;5974;42.710;27.258;2023-03-21T13:07:11;99928.59;;;15.77;100.00
12349;BME280;5974;42.710;27.258;2023-03-21T13:09:41;99930.25;;;15.37;100.00
12349;BME280;5974;42.710;27.258;2023-03-21T13:12:21;99931.66;;;15.42;100.00